Time;durP1;ratioP1;P1;durP2;ratioP2;P2;SDS_P1;SDS_P2;PMS_P1;PMS_P2;Temp;Humidity;BMP_temperature;BMP_pressure;BME280_temperature;BME280_humidity;BME280_pressure;Samples;Min_cycle;Max_cycle;Signal;HPM_P1;HPM_P2
2021/04/08 00:00:49;;;;;;;17.00;10.70;;;1.10;94.20;;;;;;4924126;29;20287;-81
2021/04/08 00:03:17;;;;;;;16.10;9.23;;;1.10;94.00;;;;;;4923200;29;20243;-85
2021/04/08 00:05:46;;;;;;;18.47;10.10;;;1.10;94.00;;;;;;4912765;29;20346;-82
2021/04/08 00:08:14;;;;;;;16.00;9.87;;;1.00;93.80;;;;;;4913176;29;20760;-84
2021/04/08 00:10:42;;;;;;;16.27;9.40;;;1.00;93.80;;;;;;4916932;29;20183;-82
2021/04/08 00:13:09;;;;;;;15.60;8.93;;;1.20;93.80;;;;;;4916800;29;20202;-82
2021/04/08 00:15:38;;;;;;;14.03;9.00;;;1.00;93.30;;;;;;4920586;29;21052;-83
2021/04/08 00:18:06;;;;;;;16.27;9.10;;;1.00;93.60;;;;;;4916174;29;20211;-82
2021/04/08 00:20:34;;;;;;;15.33;8.90;;;0.90;93.80;;;;;;4919090;29;20300;-81
2021/04/08 00:23:03;;;;;;;18.37;9.60;;;0.90;94.30;;;;;;4929279;28;20193;-82
2021/04/08 00:25:30;;;;;;;16.73;9.93;;;0.90;93.80;;;;;;4929647;28;20208;-80
2021/04/08 00:27:58;;;;;;;15.30;8.97;;;1.00;93.60;;;;;;4931040;28;20236;-83
2021/04/08 00:30:26;;;;;;;15.90;8.93;;;1.00;93.10;;;;;;4904478;29;20259;-83
2021/04/08 00:32:54;;;;;;;18.23;9.13;;;1.00;92.90;;;;;;4920259;29;20224;-81
2021/04/08 00:35:22;;;;;;;16.33;9.47;;;1.00;92.90;;;;;;4927971;28;20234;-81
2021/04/08 00:37:50;;;;;;;14.97;9.07;;;1.00;92.90;;;;;;4926369;29;20582;-81
2021/04/08 00:40:18;;;;;;;15.30;9.20;;;0.90;92.70;;;;;;4914094;29;21585;-81
2021/04/08 00:42:46;;;;;;;12.07;8.23;;;1.00;92.60;;;;;;4915963;29;20225;-81
2021/04/08 00:45:13;;;;;;;16.50;9.33;;;1.00;92.70;;;;;;4908574;29;20645;-83
2021/04/08 00:47:41;;;;;;;17.87;9.30;;;1.00;92.70;;;;;;4914303;29;20236;-82
2021/04/08 00:50:10;;;;;;;18.47;8.73;;;1.00;92.80;;;;;;4922930;29;20207;-82
2021/04/08 00:52:38;;;;;;;15.47;9.57;;;1.00;92.90;;;;;;4922214;29;20276;-82
2021/04/08 00:55:07;;;;;;;15.90;9.53;;;1.00;93.00;;;;;;4931793;28;20416;-81
2021/04/08 00:57:35;;;;;;;17.83;9.60;;;1.10;92.70;;;;;;4929194;28;20220;-81
2021/04/08 01:00:06;;;;;;;15.90;9.30;;;1.10;92.60;;;;;;4918555;29;20837;-82
2021/04/08 01:02:34;;;;;;;16.23;9.47;;;1.20;92.40;;;;;;4911179;29;20213;-82
2021/04/08 01:05:02;;;;;;;18.20;9.07;;;1.10;92.50;;;;;;4908530;29;21609;-83
2021/04/08 01:07:33;;;;;;;11.57;8.87;;;1.10;92.50;;;;;;4905230;29;20234;-83
2021/04/08 01:10:00;;;;;;;14.37;9.47;;;1.10;92.70;;;;;;4910707;29;20667;-82
2021/04/08 01:12:28;;;;;;;18.70;9.87;;;1.10;92.70;;;;;;4900881;29;21006;-82
2021/04/08 01:14:57;;;;;;;14.10;9.63;;;1.10;92.80;;;;;;4911369;29;20208;-82
2021/04/08 01:17:35;;;;;;;14.83;9.93;;;1.10;92.50;;;;;;4903851;29;20244;-82
2021/04/08 01:20:44;;;;;;;15.97;9.53;;;1.20;92.40;;;;;;4908283;29;20696;-82
2021/04/08 01:23:51;;;;;;;13.70;9.13;;;1.20;92.30;;;;;;4907338;29;20243;-83
2021/04/08 01:27:01;;;;;;;16.03;9.13;;;1.30;92.40;;;;;;4903323;29;20225;-82
2021/04/08 01:29:48;;;;;;;17.03;8.97;;;1.30;92.10;;;;;;4874292;29;20239;-83
2021/04/08 01:32:17;;;;;;;16.23;9.17;;;1.40;92.00;;;;;;4909842;29;20212;-82
2021/04/08 01:34:48;;;;;;;12.90;9.13;;;1.40;91.80;;;;;;4907245;29;20662;-82
2021/04/08 01:37:22;;;;;;;14.50;8.83;;;1.50;91.70;;;;;;4905500;29;20297;-85
2021/04/08 01:39:51;;;;;;;14.67;9.27;;;1.50;91.50;;;;;;4907031;29;20216;-81
2021/04/08 01:42:21;;;;;;;16.80;9.60;;;1.50;91.30;;;;;;4913145;29;20613;-84
2021/04/08 01:44:50;;;;;;;16.07;9.00;;;1.60;91.20;;;;;;4922663;29;20243;-82
2021/04/08 01:47:19;;;;;;;15.37;8.93;;;1.60;90.80;;;;;;4915752;29;20224;-82
2021/04/08 01:49:52;;;;;;;14.03;8.33;;;1.70;90.80;;;;;;4926288;28;20198;-80
2021/04/08 01:52:21;;;;;;;15.93;9.33;;;1.70;90.60;;;;;;4926689;28;20206;-81
2021/04/08 01:54:55;;;;;;;15.80;9.00;;;1.80;90.30;;;;;;4917598;28;20210;-80
2021/04/08 01:57:25;;;;;;;13.90;9.23;;;1.80;90.30;;;;;;4911610;29;20218;-82
2021/04/08 01:59:53;;;;;;;14.43;8.60;;;1.80;90.30;;;;;;4910401;29;20211;-80
2021/04/08 02:02:22;;;;;;;13.57;9.07;;;1.80;90.30;;;;;;4909280;29;20208;-83
2021/04/08 02:04:52;;;;;;;16.60;9.10;;;1.80;90.20;;;;;;4905259;29;21030;-83
2021/04/08 02:07:21;;;;;;;16.43;9.80;;;1.80;90.40;;;;;;4907130;29;20212;-80
2021/04/08 02:09:51;;;;;;;17.23;10.00;;;1.80;90.30;;;;;;4926320;28;20220;-81
2021/04/08 02:12:20;;;;;;;15.00;9.33;;;1.90;90.40;;;;;;4911897;29;20210;-82
2021/04/08 02:14:51;;;;;;;14.17;9.40;;;1.90;90.40;;;;;;4908441;29;20215;-84
2021/04/08 02:17:20;;;;;;;13.10;9.53;;;1.80;90.30;;;;;;4921515;29;20209;-81
2021/04/08 02:19:51;;;;;;;14.20;9.67;;;1.80;90.30;;;;;;4922469;29;20213;-81
2021/04/08 02:22:20;;;;;;;17.43;9.97;;;1.80;90.50;;;;;;4928301;29;20209;-82
2021/04/08 02:24:51;;;;;;;14.07;9.60;;;1.80;90.50;;;;;;4927004;29;20214;-81
2021/04/08 02:27:19;;;;;;;15.60;9.93;;;1.80;90.70;;;;;;4922901;29;21232;-81
2021/04/08 02:29:50;;;;;;;17.70;10.33;;;1.80;90.90;;;;;;4911335;29;20217;-82
2021/04/08 02:32:18;;;;;;;14.67;9.50;;;1.70;91.00;;;;;;4911591;29;20220;-82
2021/04/08 02:34:46;;;;;;;16.03;9.87;;;1.80;90.80;;;;;;4910981;29;21004;-81
2021/04/08 02:37:15;;;;;;;14.77;9.83;;;1.70;90.80;;;;;;4928183;29;20304;-83
2021/04/08 02:39:43;;;;;;;16.30;10.37;;;1.70;90.90;;;;;;4927266;29;20214;-80
2021/04/08 02:42:12;;;;;;;16.73;10.37;;;1.80;91.00;;;;;;4922365;29;20440;-82
2021/04/08 02:44:40;;;;;;;13.83;9.13;;;1.80;91.00;;;;;;4924029;29;20210;-84
2021/04/08 02:47:07;;;;;;;16.77;10.30;;;1.80;90.90;;;;;;4919449;29;20287;-81
2021/04/08 02:49:35;;;;;;;18.73;10.60;;;1.80;90.80;;;;;;4917823;29;20233;-82
2021/04/08 02:52:05;;;;;;;14.87;10.03;;;1.70;90.90;;;;;;4916847;29;20268;-81
2021/04/08 02:54:39;;;;;;;16.10;10.03;;;1.80;91.10;;;;;;4919029;29;20199;-81
2021/04/08 02:57:15;;;;;;;16.03;10.47;;;1.70;91.30;;;;;;4918722;29;20210;-81
2021/04/08 02:59:49;;;;;;;17.13;10.93;;;1.70;91.30;;;;;;4920721;29;20218;-83
2021/04/08 03:02:20;;;;;;;18.43;11.30;;;1.80;91.30;;;;;;4914715;29;20208;-82
2021/04/08 03:04:49;;;;;;;16.60;11.07;;;1.80;90.90;;;;;;4915844;29;20210;-83
2021/04/08 03:07:21;;;;;;;18.70;10.53;;;1.90;90.80;;;;;;4918243;28;20211;-81
2021/04/08 03:09:52;;;;;;;16.80;10.10;;;1.90;90.80;;;;;;4916709;29;20244;-82
2021/04/08 03:12:21;;;;;;;16.23;10.13;;;2.00;90.70;;;;;;4922852;29;20220;-82
2021/04/08 03:14:54;;;;;;;18.20;10.90;;;1.90;90.70;;;;;;4931314;28;20468;-81
2021/04/08 03:17:25;;;;;;;18.43;11.10;;;2.00;90.60;;;;;;4932563;28;20190;-82
2021/04/08 03:19:54;;;;;;;18.97;10.97;;;2.10;90.60;;;;;;4930811;28;20201;-82
2021/04/08 03:22:23;;;;;;;20.33;10.80;;;1.90;90.50;;;;;;4932239;29;20201;-82
2021/04/08 03:24:56;;;;;;;20.20;10.87;;;1.90;90.50;;;;;;4925145;29;20208;-82
2021/04/08 03:27:26;;;;;;;15.03;10.30;;;1.90;90.40;;;;;;4917849;29;20212;-81
2021/04/08 03:29:55;;;;;;;20.30;12.10;;;1.90;90.30;;;;;;4925072;29;20234;-83
2021/04/08 03:32:23;;;;;;;19.73;11.03;;;1.90;90.30;;;;;;4933335;28;20209;-82
2021/04/08 03:34:51;;;;;;;19.33;12.47;;;1.90;90.40;;;;;;4931973;28;20198;-83
2021/04/08 03:37:20;;;;;;;21.07;11.60;;;1.90;90.30;;;;;;4926387;29;20202;-81
2021/04/08 03:39:48;;;;;;;19.63;11.43;;;2.00;90.50;;;;;;4931654;29;20214;-83
2021/04/08 03:42:17;;;;;;;21.53;11.87;;;1.80;90.60;;;;;;4926926;29;20213;-80
2021/04/08 03:44:45;;;;;;;16.20;10.93;;;1.80;90.60;;;;;;4916554;29;20208;-81
2021/04/08 03:47:15;;;;;;;18.20;11.37;;;1.80;90.80;;;;;;4913955;28;20259;-82
2021/04/08 03:49:46;;;;;;;19.77;12.07;;;1.80;90.70;;;;;;4925157;29;20232;-81
2021/04/08 03:52:14;;;;;;;18.13;11.53;;;1.80;90.80;;;;;;4925254;29;20213;-81
2021/04/08 03:54:43;;;;;;;19.50;11.70;;;1.80;90.80;;;;;;4931886;29;20309;-83
2021/04/08 03:57:13;;;;;;;17.70;11.40;;;1.90;90.70;;;;;;4910329;29;20229;-82
2021/04/08 03:59:43;;;;;;;19.70;11.93;;;1.90;90.60;;;;;;4929740;29;20190;-80
2021/04/08 04:02:12;;;;;;;19.73;11.80;;;1.90;90.80;;;;;;4928531;29;20221;-81
2021/04/08 04:04:41;;;;;;;18.30;11.90;;;1.90;90.70;;;;;;4933348;29;20224;-82
2021/04/08 04:07:09;;;;;;;19.87;12.50;;;2.00;90.70;;;;;;4927646;29;20249;-80
2021/04/08 04:09:38;;;;;;;17.97;11.33;;;2.00;90.50;;;;;;4929561;29;20240;-83
2021/04/08 04:12:06;;;;;;;17.17;12.13;;;2.10;90.50;;;;;;4929838;28;21882;-82
2021/04/08 04:14:37;;;;;;;19.60;12.10;;;2.00;90.40;;;;;;4928971;29;20195;-79
2021/04/08 04:17:25;;;;;;;18.13;12.07;;;2.10;90.40;;;;;;4924087;29;20238;-83
2021/04/08 04:19:53;;;;;;;16.50;11.53;;;2.10;90.40;;;;;;4930295;29;20211;-84
2021/04/08 04:22:37;;;;;;;18.30;12.43;;;2.10;90.40;;;;;;4929367;29;20289;-81
2021/04/08 04:25:07;;;;;;;19.03;12.13;;;2.10;90.40;;;;;;4924952;29;20237;-83
2021/04/08 04:27:35;;;;;;;17.13;12.10;;;2.10;90.50;;;;;;4907514;29;20206;-83
2021/04/08 04:30:04;;;;;;;20.47;12.20;;;2.10;90.50;;;;;;4910264;29;20709;-83
2021/04/08 04:32:33;;;;;;;17.87;12.00;;;2.30;90.50;;;;;;4909086;28;20211;-82
2021/04/08 04:35:01;;;;;;;19.63;11.37;;;2.20;90.60;;;;;;4912488;29;20202;-83
2021/04/08 04:37:28;;;;;;;19.37;12.10;;;2.10;90.50;;;;;;4908818;29;20713;-80
2021/04/08 04:39:56;;;;;;;20.13;12.03;;;2.20;90.60;;;;;;4911869;29;20777;-82
2021/04/08 04:42:24;;;;;;;17.67;12.37;;;2.20;90.40;;;;;;4932867;28;20200;-83
2021/04/08 04:44:54;;;;;;;20.57;11.70;;;2.20;90.50;;;;;;4925900;28;20203;-84
2021/04/08 04:47:22;;;;;;;18.97;11.77;;;2.30;90.70;;;;;;4912982;28;20799;-83
2021/04/08 04:49:51;;;;;;;20.20;12.43;;;2.30;90.30;;;;;;4907107;29;20249;-81
2021/04/08 04:52:19;;;;;;;17.10;11.17;;;2.40;90.30;;;;;;4905071;29;20292;-85
2021/04/08 04:54:47;;;;;;;19.00;12.03;;;2.40;90.30;;;;;;4910841;29;20202;-83
2021/04/08 04:57:15;;;;;;;20.50;12.67;;;2.40;90.40;;;;;;4901920;29;20229;-82
2021/04/08 04:59:42;;;;;;;18.87;12.23;;;2.30;90.40;;;;;;4907234;28;20198;-82
2021/04/08 05:02:10;;;;;;;17.80;11.70;;;2.30;90.50;;;;;;4905001;29;20568;-83
2021/04/08 05:04:39;;;;;;;17.13;11.87;;;2.40;90.70;;;;;;4910614;29;20241;-81
2021/04/08 05:07:07;;;;;;;19.93;12.83;;;2.40;90.70;;;;;;4902045;29;20211;-80
2021/04/08 05:09:35;;;;;;;20.73;12.87;;;2.40;90.30;;;;;;4901411;29;20233;-82
2021/04/08 05:12:03;;;;;;;19.07;12.77;;;2.50;90.60;;;;;;4916125;29;20540;-84
2021/04/08 05:14:31;;;;;;;17.07;12.10;;;2.50;90.50;;;;;;4908571;29;20215;-83
2021/04/08 05:16:58;;;;;;;21.23;12.43;;;2.50;90.50;;;;;;4906096;29;20760;-81
2021/04/08 05:19:27;;;;;;;19.67;12.77;;;2.50;90.40;;;;;;4908999;29;20262;-83
2021/04/08 05:21:54;;;;;;;20.73;12.50;;;2.60;90.30;;;;;;4908191;29;20428;-82
2021/04/08 05:24:23;;;;;;;23.17;13.23;;;2.60;90.30;;;;;;4905869;28;20202;-83
2021/04/08 05:26:51;;;;;;;21.10;12.83;;;2.80;90.50;;;;;;4897205;29;20200;-82
2021/04/08 05:29:19;;;;;;;19.57;13.07;;;2.60;90.40;;;;;;4904668;29;20230;-81
2021/04/08 05:31:47;;;;;;;21.60;13.50;;;2.60;90.50;;;;;;4907863;29;20229;-82
2021/04/08 05:34:15;;;;;;;21.50;13.17;;;2.70;90.40;;;;;;4906199;29;20213;-82
2021/04/08 05:36:42;;;;;;;20.70;13.27;;;2.70;90.50;;;;;;4903565;29;20234;-84
2021/04/08 05:39:10;;;;;;;20.33;13.40;;;2.70;90.60;;;;;;4905992;29;20211;-81
2021/04/08 05:41:38;;;;;;;19.17;13.03;;;2.70;90.60;;;;;;4907715;29;20270;-83
2021/04/08 05:44:06;;;;;;;23.90;14.20;;;2.70;90.70;;;;;;4916766;29;20732;-84
2021/04/08 05:46:33;;;;;;;18.80;13.20;;;2.70;90.70;;;;;;4908046;29;20549;-82
2021/04/08 05:49:02;;;;;;;21.17;13.93;;;2.70;90.80;;;;;;4922652;29;20225;-80
2021/04/08 05:51:30;;;;;;;25.37;13.83;;;2.70;91.00;;;;;;4907079;29;20560;-81
2021/04/08 05:54:00;;;;;;;28.17;15.07;;;2.70;91.10;;;;;;4912131;29;20203;-83
2021/04/08 05:56:27;;;;;;;23.67;14.93;;;2.70;91.10;;;;;;4908106;29;20203;-84
2021/04/08 05:58:56;;;;;;;25.30;14.60;;;2.80;91.40;;;;;;4906508;29;20211;-83
2021/04/08 06:01:24;;;;;;;20.30;14.10;;;2.70;91.50;;;;;;4912369;29;20207;-83
2021/04/08 06:04:01;;;;;;;25.87;15.70;;;2.80;91.70;;;;;;4906774;29;20210;-83
2021/04/08 06:06:30;;;;;;;21.33;14.60;;;2.70;92.30;;;;;;4914671;29;20202;-84
2021/04/08 06:08:57;;;;;;;21.63;15.13;;;2.70;93.40;;;;;;4927384;28;20215;-81
2021/04/08 06:11:25;;;;;;;21.97;13.60;;;2.70;93.50;;;;;;4926508;28;20186;-83
2021/04/08 06:13:53;;;;;;;25.53;16.37;;;2.60;94.50;;;;;;4919780;28;20214;-82
2021/04/08 06:16:22;;;;;;;21.37;15.33;;;2.60;95.10;;;;;;4908207;29;20269;-81
2021/04/08 06:18:50;;;;;;;24.53;16.27;;;2.60;95.40;;;;;;4909051;29;20213;-82
2021/04/08 06:21:18;;;;;;;24.13;15.90;;;2.50;95.70;;;;;;4909813;29;20226;-82
2021/04/08 06:23:46;;;;;;;24.03;14.10;;;2.60;96.10;;;;;;4908764;29;20298;-83
2021/04/08 06:26:15;;;;;;;25.90;16.83;;;2.80;96.80;;;;;;4911392;29;20571;-79
2021/04/08 06:28:43;;;;;;;25.00;16.63;;;2.70;97.50;;;;;;4887516;29;20225;-82
2021/04/08 06:31:11;;;;;;;26.47;17.07;;;2.70;97.40;;;;;;4907388;29;20950;-82
2021/04/08 06:33:40;;;;;;;24.13;16.57;;;2.70;97.80;;;;;;4897595;28;20211;-83
2021/04/08 06:36:09;;;;;;;26.57;17.27;;;2.60;98.20;;;;;;4902348;29;20213;-81
2021/04/08 06:38:37;;;;;;;27.70;17.73;;;2.70;98.50;;;;;;4895833;29;20202;-80
2021/04/08 06:41:05;;;;;;;25.90;17.97;;;2.70;98.60;;;;;;4909884;29;20194;-82
2021/04/08 06:43:39;;;;;;;25.20;17.53;;;2.80;98.90;;;;;;4921038;28;20207;-82
2021/04/08 06:46:09;;;;;;;30.70;20.10;;;2.80;99.30;;;;;;4924509;28;20266;-81
2021/04/08 06:48:42;;;;;;;29.00;18.20;;;2.90;99.40;;;;;;4910920;29;20656;-81
2021/04/08 06:51:13;;;;;;;28.53;19.53;;;2.90;99.10;;;;;;4917231;29;20198;-84
2021/04/08 06:53:41;;;;;;;31.33;21.13;;;3.00;99.10;;;;;;4922667;29;20242;-81
2021/04/08 06:56:12;;;;;;;30.70;20.57;;;3.00;99.00;;;;;;4904523;29;20203;-81
2021/04/08 06:58:41;;;;;;;33.13;20.93;;;3.00;99.40;;;;;;4900845;29;20219;-80
2021/04/08 07:01:30;;;;;;;32.43;21.27;;;3.00;99.90;;;;;;4900498;29;20348;-81
2021/04/08 07:03:59;;;;;;;35.97;22.47;;;2.90;99.90;;;;;;4894157;29;20211;-78
2021/04/08 07:06:27;;;;;;;32.83;21.40;;;3.00;99.60;;;;;;4901128;29;20669;-83
2021/04/08 07:08:57;;;;;;;35.90;22.57;;;3.00;99.90;;;;;;4904366;29;20236;-79
2021/04/08 07:11:26;;;;;;;34.93;22.33;;;3.10;99.90;;;;;;4908807;29;20212;-80
2021/04/08 07:13:54;;;;;;;33.10;21.57;;;3.20;99.40;;;;;;4898384;29;20213;-83
2021/04/08 07:16:22;;;;;;;31.77;20.80;;;3.30;99.40;;;;;;4896709;29;20212;-82
2021/04/08 07:18:51;;;;;;;34.77;20.97;;;3.30;99.30;;;;;;4898398;29;20468;-79
2021/04/08 07:21:21;;;;;;;28.53;19.43;;;3.50;99.00;;;;;;4906782;29;20215;-80
2021/04/08 07:24:09;;;;;;;27.83;18.03;;;3.50;97.60;;;;;;4903876;28;20316;-82
2021/04/08 07:26:55;;;;;;;30.53;20.17;;;3.60;96.90;;;;;;4900476;29;20804;-79
2021/04/08 07:29:24;;;;;;;30.47;20.00;;;3.70;97.20;;;;;;4902024;29;20265;-80
2021/04/08 07:31:52;;;;;;;27.13;18.47;;;3.80;96.80;;;;;;4903639;29;20272;-82
2021/04/08 07:34:34;;;;;;;28.17;18.57;;;3.80;95.70;;;;;;4914596;28;20209;-79
2021/04/08 07:37:04;;;;;;;26.70;18.80;;;3.90;95.50;;;;;;4907348;29;20193;-80
2021/04/08 07:39:37;;;;;;;28.90;19.27;;;4.00;96.10;;;;;;4906225;28;20217;-81
2021/04/08 07:42:07;;;;;;;28.20;19.23;;;4.10;95.10;;;;;;4892466;29;20226;-81
2021/04/08 07:44:46;;;;;;;27.13;17.67;;;4.20;94.90;;;;;;4895280;29;20219;-81
2021/04/08 07:47:19;;;;;;;28.90;19.17;;;4.30;94.20;;;;;;4898195;29;20647;-80
2021/04/08 07:49:49;;;;;;;27.63;19.23;;;4.40;93.10;;;;;;4903295;29;20476;-79
2021/04/08 07:52:22;;;;;;;27.20;18.27;;;4.50;93.20;;;;;;4890782;29;20245;-80
2021/04/08 07:55:02;;;;;;;26.57;18.50;;;4.60;93.50;;;;;;4905739;29;20261;-83
2021/04/08 07:57:30;;;;;;;25.93;18.43;;;4.90;92.70;;;;;;4898737;28;20638;-80
2021/04/08 08:00:16;;;;;;;25.47;17.87;;;5.10;91.90;;;;;;4898129;29;20210;-79
2021/04/08 08:02:43;;;;;;;26.80;18.10;;;5.20;91.80;;;;;;4904615;29;20681;-81
2021/04/08 08:05:25;;;;;;;25.50;18.53;;;5.50;91.10;;;;;;4902251;29;20204;-82
2021/04/08 08:07:55;;;;;;;23.30;17.13;;;5.80;90.70;;;;;;4904329;29;20269;-81
2021/04/08 08:10:26;;;;;;;24.80;17.40;;;5.90;89.10;;;;;;4913792;29;20302;-80
2021/04/08 08:12:54;;;;;;;25.80;18.00;;;5.90;90.40;;;;;;4867900;28;20276;-82
2021/04/08 08:15:30;;;;;;;22.50;16.50;;;6.00;90.30;;;;;;4924654;28;20203;-82
2021/04/08 08:18:01;;;;;;;25.17;16.73;;;6.20;88.70;;;;;;4930740;28;20210;-80
2021/04/08 08:20:29;;;;;;;22.67;16.70;;;6.40;88.30;;;;;;4904577;29;20291;-84
2021/04/08 08:22:58;;;;;;;23.40;16.60;;;6.60;88.70;;;;;;4863436;29;20717;-79
2021/04/08 08:25:28;;;;;;;20.80;15.53;;;6.60;86.70;;;;;;4923192;29;20216;-84
2021/04/08 08:27:57;;;;;;;22.67;16.47;;;6.60;86.50;;;;;;4915030;29;20207;-81
2021/04/08 08:30:32;;;;;;;22.33;15.63;;;6.40;87.20;;;;;;4916757;29;20247;-82
2021/04/08 08:33:14;;;;;;;19.83;14.67;;;6.30;87.20;;;;;;4863236;29;20324;-81
2021/04/08 08:35:42;;;;;;;19.93;14.37;;;6.10;87.10;;;;;;4903221;29;20215;-81
2021/04/08 08:38:14;;;;;;;16.00;12.10;;;5.90;87.70;;;;;;4899272;29;20210;-83
2021/04/08 08:40:43;;;;;;;14.70;10.70;;;5.50;88.10;;;;;;4907455;29;20210;-85
2021/04/08 08:43:13;;;;;;;14.63;10.40;;;5.20;90.10;;;;;;4836184;29;20705;-84
2021/04/08 08:45:44;;;;;;;12.77;9.43;;;5.10;91.00;;;;;;4804884;29;20619;-84
2021/04/08 08:48:16;;;;;;;13.10;8.80;;;5.10;92.00;;;;;;4815303;29;20308;-86
2021/04/08 08:50:49;;;;;;;13.90;9.63;;;5.20;91.60;;;;;;4816088;29;20737;-82
2021/04/08 08:53:22;;;;;;;13.03;10.87;;;5.10;91.10;;;;;;4778956;29;20357;-82
2021/04/08 08:55:52;;;;;;;14.53;9.83;;;5.10;91.60;;;;;;4890848;29;20221;-82
2021/04/08 08:58:20;;;;;;;14.97;10.00;;;4.70;92.60;;;;;;4908302;29;20275;-79
2021/04/08 09:00:48;;;;;;;15.70;11.23;;;4.30;93.70;;;;;;4918760;29;20204;-84
2021/04/08 09:03:16;;;;;;;17.70;12.37;;;4.10;94.90;;;;;;4864500;29;20233;-83
2021/04/08 09:05:44;;;;;;;19.27;13.30;;;4.00;96.90;;;;;;4914328;28;20225;-82
2021/04/08 09:08:17;;;;;;;22.20;14.67;;;4.00;99.50;;;;;;4901228;29;20209;-83
2021/04/08 09:10:54;;;;;;;21.13;13.67;;;4.20;99.90;;;;;;4900054;29;20650;-84
2021/04/08 09:13:22;;;;;;;22.20;15.00;;;4.40;99.90;;;;;;4842232;29;20527;-80
2021/04/08 09:15:50;;;;;;;20.80;14.83;;;4.60;99.90;;;;;;4888691;29;20209;-80
2021/04/08 09:18:23;;;;;;;21.90;15.33;;;4.70;99.90;;;;;;4892926;29;20202;-82
2021/04/08 09:20:53;;;;;;;21.40;14.43;;;5.00;99.90;;;;;;4903411;29;20214;-82
2021/04/08 09:23:23;;;;;;;19.90;14.43;;;5.10;99.90;;;;;;4857276;29;20221;-81
2021/04/08 09:25:55;;;;;;;20.07;14.10;;;5.20;99.90;;;;;;4905828;29;20222;-81
2021/04/08 09:28:26;;;;;;;18.60;13.53;;;5.40;98.10;;;;;;4901667;29;20422;-81
2021/04/08 09:30:59;;;;;;;16.23;12.67;;;5.50;96.40;;;;;;4908502;29;20475;-80
2021/04/08 09:33:59;;;;;;;15.63;11.07;;;5.70;96.50;;;;;;4843920;29;20217;-82
2021/04/08 09:36:43;;;;;;;14.83;11.50;;;6.00;93.70;;;;;;4913188;29;20658;-83
2021/04/08 09:39:28;;;;;;;12.23;9.93;;;6.30;95.80;;;;;;4911587;29;20555;-80
2021/04/08 09:42:03;;;;;;;10.43;8.37;;;6.30;91.40;;;;;;4882936;29;20392;-82
2021/04/08 09:44:31;;;;;;;10.33;7.33;;;6.30;91.60;;;;;;4896288;28;20238;-82
2021/04/08 09:47:01;;;;;;;11.27;7.40;;;6.10;90.80;;;;;;4908770;29;20753;-80
2021/04/08 09:49:50;;;;;;;9.73;7.67;;;5.90;91.40;;;;;;4924086;29;20224;-83
2021/04/08 09:52:18;;;;;;;11.30;7.40;;;5.70;93.40;;;;;;4884601;29;20239;-81
2021/04/08 09:54:53;;;;;;;7.77;6.67;;;5.50;93.30;;;;;;4911546;29;20290;-82
2021/04/08 09:57:39;;;;;;;8.23;6.37;;;5.40;93.50;;;;;;4914177;29;20231;-81
2021/04/08 10:00:13;;;;;;;9.83;7.00;;;5.60;93.30;;;;;;4912531;28;20210;-81
2021/04/08 10:02:56;;;;;;;9.70;7.00;;;5.60;93.90;;;;;;4891596;29;20265;-80
2021/04/08 10:05:29;;;;;;;10.83;7.60;;;5.80;94.90;;;;;;4922157;29;20221;-83
2021/04/08 10:07:58;;;;;;;11.93;7.57;;;5.90;94.70;;;;;;4914045;29;20219;-83
2021/04/08 10:10:42;;;;;;;9.03;7.30;;;5.90;92.90;;;;;;4921859;28;20230;-84
2021/04/08 10:13:22;;;;;;;9.07;6.90;;;5.60;92.40;;;;;;4870685;28;20241;-83
2021/04/08 10:15:53;;;;;;;8.40;6.80;;;5.50;93.50;;;;;;4926724;28;20195;-82
2021/04/08 10:18:24;;;;;;;9.00;6.47;;;5.30;94.20;;;;;;4928210;28;20214;-81
2021/04/08 10:21:00;;;;;;;8.30;6.60;;;5.30;96.50;;;;;;4930775;28;20324;-82
2021/04/08 10:23:31;;;;;;;7.80;6.43;;;5.30;94.40;;;;;;4909931;23;20218;-83
2021/04/08 10:26:01;;;;;;;8.17;5.97;;;5.20;93.70;;;;;;4947437;28;20195;-83
2021/04/08 10:28:38;;;;;;;7.93;6.20;;;5.20;94.20;;;;;;4944009;28;20210;-84
2021/04/08 10:31:24;;;;;;;6.90;5.73;;;5.20;93.60;;;;;;4936759;28;20228;-84
2021/04/08 10:33:55;;;;;;;6.70;5.17;;;5.20;94.00;;;;;;4905244;29;20226;-82
2021/04/08 10:36:27;;;;;;;7.77;5.50;;;5.30;96.00;;;;;;4928576;29;20246;-80
2021/04/08 10:39:10;;;;;;;7.17;5.97;;;5.30;94.20;;;;;;4923677;28;20618;-78
2021/04/08 10:41:40;;;;;;;9.33;5.90;;;5.60;95.50;;;;;;4912749;28;20412;-81
2021/04/08 10:44:23;;;;;;;6.77;5.80;;;5.70;94.30;;;;;;4909173;28;20231;-82
2021/04/08 10:46:52;;;;;;;6.83;5.20;;;5.80;93.00;;;;;;4918658;29;20233;-83
2021/04/08 10:49:24;;;;;;;9.00;6.00;;;6.10;91.70;;;;;;4928597;28;20474;-81
2021/04/08 10:52:04;;;;;;;8.20;6.33;;;6.40;91.10;;;;;;4917809;28;20723;-81
2021/04/08 10:54:34;;;;;;;8.17;6.37;;;6.50;91.00;;;;;;4927814;28;20922;-82
2021/04/08 10:57:02;;;;;;;7.63;6.77;;;6.60;91.00;;;;;;4944267;29;20208;-82
2021/04/08 10:59:32;;;;;;;8.80;7.03;;;6.30;90.40;;;;;;4936197;29;20203;-84
2021/04/08 11:02:03;;;;;;;9.63;8.50;;;5.90;92.60;;;;;;4915527;28;20286;-80
2021/04/08 11:04:36;;;;;;;10.57;7.83;;;5.90;93.70;;;;;;4929685;28;20245;-80
2021/04/08 11:07:04;;;;;;;11.23;8.60;;;6.00;94.70;;;;;;4936271;28;20206;-82
2021/04/08 11:09:32;;;;;;;10.30;8.07;;;6.20;95.00;;;;;;4938651;28;20232;-81
2021/04/08 11:12:16;;;;;;;11.80;8.53;;;6.30;91.30;;;;;;4909985;28;20222;-80
2021/04/08 11:14:49;;;;;;;11.87;9.13;;;6.40;92.70;;;;;;4932326;28;20230;-81
2021/04/08 11:17:18;;;;;;;12.73;9.67;;;6.50;92.10;;;;;;4929376;28;20691;-79
2021/04/08 11:19:47;;;;;;;12.77;9.03;;;6.70;91.10;;;;;;4925228;29;20663;-82
2021/04/08 11:22:16;;;;;;;12.00;8.67;;;6.80;90.50;;;;;;4914284;28;20457;-82
2021/04/08 11:24:47;;;;;;;11.23;8.00;;;6.70;89.10;;;;;;4927666;28;20219;-82
2021/04/08 11:27:24;;;;;;;8.73;7.20;;;6.60;88.20;;;;;;4918582;28;20198;-82
2021/04/08 11:29:54;;;;;;;9.50;7.60;;;6.30;87.90;;;;;;4926881;28;20235;-82
2021/04/08 11:32:23;;;;;;;9.27;7.87;;;6.30;89.70;;;;;;4911666;29;20467;-82
2021/04/08 11:34:55;;;;;;;8.73;7.07;;;6.50;90.10;;;;;;4930098;29;20882;-81
2021/04/08 11:37:34;;;;;;;9.43;6.73;;;6.50;87.90;;;;;;4933522;28;20212;-82
2021/04/08 11:40:03;;;;;;;7.80;6.60;;;6.50;87.60;;;;;;4936148;28;20210;-81
2021/04/08 11:42:39;;;;;;;7.47;5.97;;;6.50;87.60;;;;;;4892552;28;20217;-80
2021/04/08 11:45:24;;;;;;;10.10;6.67;;;6.60;86.40;;;;;;4938151;28;20264;-82
2021/04/08 11:48:01;;;;;;;9.20;6.37;;;6.90;85.80;;;;;;4930052;28;20234;-84
2021/04/08 11:50:31;;;;;;;9.00;6.77;;;7.10;86.60;;;;;;4937507;29;20246;-85
2021/04/08 11:53:05;;;;;;;10.27;7.00;;;7.20;85.70;;;;;;4911691;28;20407;-80
2021/04/08 11:55:39;;;;;;;8.23;6.40;;;7.40;85.00;;;;;;4937563;28;20196;-80
2021/04/08 11:58:08;;;;;;;7.37;5.67;;;7.70;83.70;;;;;;4930975;28;20209;-79
2021/04/08 12:00:38;;;;;;;9.07;6.27;;;7.70;81.80;;;;;;4922255;29;20212;-82
2021/04/08 12:03:17;;;;;;;9.30;6.40;;;7.70;81.80;;;;;;4887634;28;21326;-82
2021/04/08 12:05:46;;;;;;;7.23;6.07;;;7.80;82.60;;;;;;4923909;28;21012;-86
2021/04/08 12:08:13;;;;;;;7.23;6.03;;;7.90;83.10;;;;;;4921769;29;20443;-81
2021/04/08 12:10:42;;;;;;;10.83;6.33;;;8.00;82.30;;;;;;4913808;29;20304;-81
2021/04/08 12:13:11;;;;;;;9.27;5.73;;;8.10;82.10;;;;;;4874310;28;20229;-82
2021/04/08 12:15:43;;;;;;;7.23;5.47;;;8.30;82.20;;;;;;4924448;29;21734;-83
2021/04/08 12:18:14;;;;;;;5.57;4.73;;;8.50;81.50;;;;;;4921777;29;20242;-84
2021/04/08 12:20:42;;;;;;;6.30;4.60;;;8.80;81.60;;;;;;4929116;29;20746;-84
2021/04/08 12:23:12;;;;;;;5.37;4.40;;;8.90;79.80;;;;;;4898768;28;20819;-81
2021/04/08 12:25:44;;;;;;;5.63;5.03;;;9.00;79.00;;;;;;4918985;29;20207;-84
2021/04/08 12:28:12;;;;;;;5.07;4.00;;;9.20;79.30;;;;;;4928926;29;20649;-86
2021/04/08 12:30:57;;;;;;;4.97;4.13;;;9.20;77.90;;;;;;4925584;28;20562;-81
2021/04/08 12:33:28;;;;;;;6.67;4.10;;;9.30;78.00;;;;;;4894671;29;20242;-81
2021/04/08 12:35:58;;;;;;;6.50;4.13;;;9.20;77.90;;;;;;4926466;28;20301;-82
2021/04/08 12:38:28;;;;;;;5.93;4.20;;;9.40;78.20;;;;;;4929929;28;20246;-83
2021/04/08 12:40:58;;;;;;;4.67;4.27;;;9.50;78.60;;;;;;4936734;28;20258;-84
2021/04/08 12:43:26;;;;;;;5.07;4.43;;;9.40;78.10;;;;;;4887022;29;20226;-84
2021/04/08 12:45:55;;;;;;;5.37;4.37;;;9.20;77.70;;;;;;4925699;28;20210;-83
2021/04/08 12:48:23;;;;;;;10.40;7.33;;;8.90;78.20;;;;;;4917609;29;20224;-83
2021/04/08 12:50:53;;;;;;;12.43;8.70;;;8.60;80.60;;;;;;4925658;29;20283;-80
2021/04/08 12:53:24;;;;;;;13.67;9.93;;;8.00;81.40;;;;;;4889616;28;20597;-80
2021/04/08 12:55:55;;;;;;;13.00;10.70;;;7.40;82.50;;;;;;4918514;29;20234;-80
2021/04/08 12:58:24;;;;;;;13.17;10.27;;;7.00;83.70;;;;;;4918422;29;20267;-79
2021/04/08 13:00:54;;;;;;;14.53;10.33;;;6.70;84.50;;;;;;4919639;28;20345;-81
2021/04/08 13:03:24;;;;;;;14.97;10.17;;;6.50;85.20;;;;;;4875427;29;20221;-85